createdAt,value
2023-05-04T00:02:53.491Z,10.95
2023-05-04T00:06:35.442Z,10.38
2023-05-04T00:10:17.807Z,9.50
2023-05-04T00:13:59.712Z,9.85
2023-05-04T00:17:41.599Z,9.65
2023-05-04T00:21:23.676Z,9.65
2023-05-04T00:25:06.692Z,10.18
2023-05-04T00:28:48.518Z,9.93
2023-05-04T00:32:30.975Z,9.02
2023-05-04T00:36:14.000Z,10.07
2023-05-04T00:39:55.906Z,9.13
2023-05-04T00:43:37.670Z,10.57
2023-05-04T00:47:21.422Z,10.57
2023-05-04T00:51:04.087Z,9.40
2023-05-04T00:54:47.673Z,9.88
2023-05-04T00:58:31.480Z,9.82
2023-05-04T01:02:13.627Z,10.90
2023-05-04T01:06:09.178Z,10.82
2023-05-04T01:09:59.855Z,10.98
2023-05-04T01:13:43.103Z,10.80
2023-05-04T01:17:25.024Z,10.80
2023-05-04T01:21:07.137Z,11.05
2023-05-04T01:24:51.149Z,11.60
2023-05-04T01:28:49.206Z,11.13
2023-05-04T01:32:32.179Z,12.15
2023-05-04T01:36:14.299Z,13.60
2023-05-04T01:39:56.238Z,12.18
2023-05-04T01:43:38.048Z,12.98
2023-05-04T01:47:19.920Z,12.82
2023-05-04T01:51:01.751Z,12.48
2023-05-04T01:54:43.581Z,12.75
2023-05-04T01:58:25.383Z,12.52
2023-05-04T02:02:07.294Z,13.75
2023-05-04T02:05:49.080Z,13.48
2023-05-04T02:09:31.818Z,11.65
2023-05-04T02:13:13.703Z,12.40
2023-05-04T02:16:55.975Z,11.27
2023-05-04T02:20:37.730Z,12.43
2023-05-04T02:24:19.511Z,12.90
2023-05-04T02:28:01.309Z,12.48
2023-05-04T02:31:43.169Z,11.60
2023-05-04T02:35:25.084Z,12.80
2023-05-04T02:39:06.948Z,12.35
2023-05-04T02:42:49.039Z,11.00
2023-05-04T02:46:32.240Z,11.45
2023-05-04T02:50:14.141Z,12.30
2023-05-04T02:53:55.997Z,11.50
2023-05-04T02:57:37.789Z,11.18
2023-05-04T03:01:19.629Z,11.43
2023-05-04T03:05:01.435Z,11.70
2023-05-04T03:08:43.234Z,11.52
2023-05-04T03:12:25.346Z,11.27
2023-05-04T03:16:07.247Z,11.68
2023-05-04T03:19:49.027Z,11.02
2023-05-04T03:23:30.830Z,11.43
2023-05-04T03:27:12.986Z,10.90
2023-05-04T03:30:54.827Z,10.65
2023-05-04T03:34:36.635Z,11.95
2023-05-04T03:38:18.455Z,11.50
2023-05-04T03:42:00.947Z,11.98
2023-05-04T03:45:42.800Z,11.63
2023-05-04T03:49:24.613Z,12.20
2023-05-04T03:53:06.476Z,11.63
2023-05-04T03:56:48.288Z,12.50
2023-05-04T04:00:30.111Z,13.45
2023-05-04T04:04:11.911Z,12.48
2023-05-04T04:07:53.745Z,14.73
2023-05-04T04:11:35.953Z,13.70
2023-05-04T04:15:17.766Z,13.02
2023-05-04T04:19:01.790Z,13.85
2023-05-04T04:22:43.594Z,12.30
2023-05-04T04:26:25.420Z,13.38
2023-05-04T04:30:08.039Z,12.98
2023-05-04T04:33:50.285Z,13.68
2023-05-04T04:37:32.088Z,15.63
2023-05-04T04:41:14.048Z,13.73
2023-05-04T04:44:56.251Z,15.52
2023-05-04T04:48:38.083Z,14.98
2023-05-04T04:52:19.880Z,14.93
2023-05-04T04:56:01.665Z,16.95
2023-05-04T04:59:43.538Z,16.45
2023-05-04T05:03:25.723Z,16.58
2023-05-04T05:07:08.999Z,16.48
2023-05-04T05:10:50.947Z,17.33
2023-05-04T05:14:33.283Z,16.73
2023-05-04T05:18:15.038Z,15.18
2023-05-04T05:21:59.799Z,16.52
2023-05-04T05:25:41.669Z,17.05
2023-05-04T05:29:23.583Z,16.52
2023-05-04T05:33:05.753Z,16.17
2023-05-04T05:36:49.069Z,16.58
2023-05-04T05:40:31.311Z,15.80
2023-05-04T05:44:13.344Z,16.13
2023-05-04T05:47:55.244Z,16.88
2023-05-04T05:51:37.200Z,17.25
2023-05-04T05:55:19.108Z,16.77
2023-05-04T05:59:00.927Z,15.68
2023-05-04T06:02:43.088Z,17.73
2023-05-04T06:06:25.111Z,17.67
2023-05-04T06:10:07.530Z,16.05
2023-05-04T06:13:49.644Z,17.00
2023-05-04T06:17:31.689Z,16.58
2023-05-04T06:21:13.877Z,16.25
2023-05-04T06:25:00.458Z,17.88
2023-05-04T06:28:44.869Z,16.73
2023-05-04T06:32:26.848Z,16.15
2023-05-04T06:36:08.899Z,16.10
2023-05-04T06:39:50.748Z,16.58
2023-05-04T06:43:33.131Z,17.70
2023-05-04T06:47:15.855Z,16.80
2023-05-04T06:50:57.690Z,16.75
2023-05-04T06:54:40.362Z,16.30
2023-05-04T06:58:22.372Z,16.70
2023-05-04T07:02:04.215Z,15.88
2023-05-04T07:05:48.597Z,15.50
2023-05-04T07:09:30.442Z,15.05
2023-05-04T07:13:12.691Z,16.05
2023-05-04T07:16:54.899Z,13.90
2023-05-04T07:20:36.772Z,15.27
2023-05-04T07:24:18.821Z,14.52
2023-05-04T07:28:01.101Z,14.70
2023-05-04T07:31:42.996Z,15.00
2023-05-04T07:35:24.898Z,13.43
2023-05-04T07:39:07.684Z,13.07
2023-05-04T07:42:49.527Z,15.13
2023-05-04T07:46:31.445Z,14.23
2023-05-04T07:50:14.109Z,13.35
2023-05-04T07:53:55.914Z,13.43
2023-05-04T07:57:37.884Z,13.95
2023-05-04T08:01:19.729Z,13.57
2023-05-04T08:05:01.658Z,14.02
2023-05-04T08:08:44.805Z,13.30
2023-05-04T08:12:27.127Z,12.63
2023-05-04T08:16:10.296Z,13.25
2023-05-04T08:19:52.112Z,11.48
2023-05-04T08:23:34.117Z,11.85
2023-05-04T08:27:16.259Z,10.77
2023-05-04T08:30:58.090Z,12.18
2023-05-04T08:34:39.959Z,11.48
2023-05-04T08:38:21.745Z,11.32
2023-05-04T08:42:03.708Z,12.65
2023-05-04T08:45:45.726Z,12.52
2023-05-04T08:49:27.846Z,12.30
2023-05-04T08:53:13.844Z,11.50
2023-05-04T08:56:57.106Z,12.57
2023-05-04T09:00:39.463Z,12.70
2023-05-04T09:04:22.416Z,12.15
2023-05-04T09:08:04.418Z,12.15
2023-05-04T09:11:47.893Z,13.23
2023-05-04T09:15:34.458Z,12.15
2023-05-04T09:19:20.865Z,11.43
2023-05-04T09:23:09.712Z,11.45
2023-05-04T09:26:51.927Z,10.80
2023-05-04T09:30:33.720Z,10.48
2023-05-04T09:34:16.397Z,10.63
2023-05-04T09:37:58.302Z,9.50
2023-05-04T09:41:41.722Z,9.82
2023-05-04T09:45:23.609Z,11.10
2023-05-04T09:49:05.427Z,11.00
2023-05-04T09:52:48.064Z,10.25
2023-05-04T09:56:29.992Z,9.95
2023-05-04T10:00:17.236Z,9.45
2023-05-04T10:03:59.156Z,9.95
2023-05-04T10:07:42.853Z,10.27
2023-05-04T10:11:26.356Z,10.02
2023-05-04T10:15:12.455Z,9.98
2023-05-04T10:23:34.888Z,10.60
2023-05-04T10:27:52.097Z,10.10
2023-05-04T10:31:41.347Z,9.25
2023-05-04T10:35:23.640Z,10.75
2023-05-04T10:39:17.667Z,10.57
2023-05-04T10:42:59.778Z,9.77
2023-05-04T10:46:41.684Z,10.50
2023-05-04T10:50:23.508Z,10.73
2023-05-04T10:54:05.405Z,9.38
2023-05-04T10:57:53.865Z,10.20
2023-05-04T11:01:45.419Z,10.23
2023-05-04T11:05:27.503Z,9.50
2023-05-04T11:09:12.342Z,9.82
2023-05-04T11:13:02.218Z,8.82
2023-05-04T11:16:45.902Z,9.25
2023-05-04T11:20:28.077Z,8.77
2023-05-04T11:24:09.937Z,9.43
2023-05-04T11:27:51.937Z,8.75
2023-05-04T11:31:33.790Z,9.40
2023-05-04T11:35:19.548Z,9.13
2023-05-04T11:39:02.668Z,10.83
2023-05-04T11:42:45.002Z,10.15
2023-05-04T11:46:27.927Z,9.73
2023-05-04T11:50:11.619Z,10.48
2023-05-04T11:53:54.291Z,10.05
2023-05-04T11:57:37.694Z,10.43
2023-05-04T12:01:19.514Z,10.13
2023-05-04T12:05:02.321Z,9.40
2023-05-04T12:08:44.170Z,10.15
2023-05-04T12:12:35.926Z,10.45
2023-05-04T12:16:21.181Z,9.50
2023-05-04T12:20:03.241Z,9.18
2023-05-04T12:23:46.407Z,8.48
2023-05-04T12:27:28.898Z,8.00
2023-05-04T12:31:10.759Z,7.05
2023-05-04T12:34:52.647Z,7.30
2023-05-04T12:38:34.809Z,7.57
2023-05-04T12:42:16.704Z,7.80
2023-05-04T12:45:58.602Z,7.90
2023-05-04T12:49:40.693Z,6.95
2023-05-04T12:53:24.561Z,6.75
2023-05-04T12:57:06.436Z,7.72
2023-05-04T13:00:49.098Z,7.65
2023-05-04T13:04:31.369Z,7.20
2023-05-04T13:08:13.461Z,7.95
2023-05-04T13:11:55.647Z,7.25
2023-05-04T13:15:37.706Z,7.75
2023-05-04T13:19:19.574Z,6.75
2023-05-04T13:23:04.289Z,7.22
2023-05-04T13:26:46.664Z,7.82
2023-05-04T13:30:28.544Z,7.18
2023-05-04T13:34:10.476Z,8.52
2023-05-04T13:37:52.625Z,6.63
2023-05-04T13:41:34.504Z,5.70
2023-05-04T13:45:16.440Z,6.60
2023-05-04T13:48:58.344Z,7.15
2023-05-04T13:52:40.177Z,7.15
2023-05-04T13:56:22.057Z,7.07
2023-05-04T14:00:08.157Z,7.15
2023-05-04T14:03:50.480Z,7.70
2023-05-04T14:07:32.715Z,8.35
2023-05-04T14:11:14.528Z,7.47
2023-05-04T14:14:57.283Z,7.45
2023-05-04T14:18:39.143Z,7.57
2023-05-04T14:22:21.083Z,8.32
2023-05-04T14:26:02.937Z,7.95
2023-05-04T14:29:47.168Z,8.40
2023-05-04T14:33:29.710Z,9.43
2023-05-04T14:37:11.769Z,8.27
2023-05-04T14:40:55.381Z,7.75
2023-05-04T14:44:37.176Z,8.15
2023-05-04T14:48:19.380Z,9.75
2023-05-04T14:52:01.263Z,9.80
2023-05-04T14:55:43.623Z,9.35
2023-05-04T14:59:26.179Z,9.05
2023-05-04T15:03:09.105Z,7.82
2023-05-04T15:06:52.408Z,7.78
2023-05-04T15:10:34.426Z,8.15
2023-05-04T15:14:16.366Z,7.60
2023-05-04T15:17:58.278Z,6.97
2023-05-04T15:21:40.449Z,4.80
2023-05-04T15:25:23.910Z,5.07
2023-05-04T15:29:06.698Z,4.93
2023-05-04T15:32:48.597Z,4.13
2023-05-04T15:36:33.470Z,4.85
2023-05-04T15:40:15.314Z,4.28
2023-05-04T15:43:57.097Z,4.25
2023-05-04T15:47:38.977Z,3.78
2023-05-04T15:51:21.035Z,4.32
2023-05-04T15:55:13.004Z,4.88
2023-05-04T15:59:05.537Z,5.63
2023-05-04T16:02:47.427Z,4.45
2023-05-04T16:06:29.322Z,3.75
2023-05-04T16:10:11.370Z,3.20
2023-05-04T16:13:53.274Z,2.90
2023-05-04T16:17:35.535Z,3.58
2023-05-04T16:21:17.541Z,2.83
2023-05-04T16:24:59.971Z,2.50
2023-05-04T16:28:41.784Z,2.85
2023-05-04T16:32:23.755Z,2.42
2023-05-04T16:36:06.797Z,1.85
2023-05-04T16:39:48.677Z,2.08
2023-05-04T16:43:30.732Z,1.80
2023-05-04T16:47:12.611Z,1.70
2023-05-04T16:50:54.412Z,1.55
2023-05-04T16:54:36.416Z,1.88
2023-05-04T16:58:18.249Z,1.65
2023-05-04T17:02:00.178Z,1.05
2023-05-04T17:05:41.975Z,0.98
2023-05-04T17:09:23.842Z,0.80
2023-05-04T17:13:06.708Z,0.68
2023-05-04T17:16:48.595Z,0.60
2023-05-04T17:20:31.992Z,0.77
2023-05-04T17:24:15.210Z,0.60
2023-05-04T17:27:57.027Z,1.02
2023-05-04T17:31:38.958Z,0.73
2023-05-04T17:35:25.664Z,1.23
2023-05-04T17:39:08.063Z,0.77
2023-05-04T17:42:49.911Z,0.60
2023-05-04T17:46:31.988Z,1.00
2023-05-04T17:50:13.960Z,0.55
2023-05-04T17:53:55.797Z,1.00
2023-05-04T17:57:37.696Z,0.68
2023-05-04T18:01:19.620Z,0.88
2023-05-04T18:05:01.438Z,0.60
2023-05-04T18:08:43.310Z,0.93
2023-05-04T18:12:25.195Z,0.73
2023-05-04T18:16:07.156Z,0.55
2023-05-04T18:19:48.987Z,1.15
2023-05-04T18:23:31.021Z,0.77
2023-05-04T18:27:12.805Z,0.90
2023-05-04T18:30:54.598Z,0.73
2023-05-04T18:34:37.278Z,0.88
2023-05-04T18:38:19.074Z,0.98
2023-05-04T18:42:01.821Z,1.25
2023-05-04T18:45:43.650Z,0.63
2023-05-04T18:49:25.589Z,1.08
2023-05-04T18:53:07.657Z,0.88
2023-05-04T18:56:49.447Z,0.93
2023-05-04T19:00:31.286Z,0.68
2023-05-04T19:04:13.059Z,0.63
2023-05-04T19:07:54.886Z,1.00
2023-05-04T19:11:36.852Z,0.82
2023-05-04T19:15:18.808Z,0.57
2023-05-04T19:19:00.603Z,1.05
2023-05-04T19:22:42.463Z,0.55
2023-05-04T19:26:24.562Z,0.90
2023-05-04T19:30:07.318Z,1.00
2023-05-04T19:33:49.702Z,0.70
2023-05-04T19:37:31.720Z,0.73
2023-05-04T19:41:14.091Z,1.10
2023-05-04T19:44:56.543Z,0.90
2023-05-04T19:48:39.001Z,0.93
2023-05-04T19:52:20.931Z,1.27
2023-05-04T19:56:02.820Z,0.82
2023-05-04T19:59:46.884Z,0.93
2023-05-04T20:03:29.154Z,0.70
2023-05-04T20:07:11.034Z,1.10
2023-05-04T20:10:52.827Z,0.77
2023-05-04T20:14:34.813Z,0.70
2023-05-04T20:18:16.895Z,1.20
2023-05-04T20:21:58.888Z,0.82
2023-05-04T20:25:40.688Z,0.88
2023-05-04T20:29:22.642Z,0.95
2023-05-04T20:33:04.547Z,1.00
2023-05-04T20:36:47.002Z,1.13
2023-05-04T20:40:29.065Z,0.80
2023-05-04T20:44:11.166Z,0.90
2023-05-04T20:47:53.021Z,0.43
2023-05-04T20:51:35.311Z,0.50
2023-05-04T20:55:18.183Z,0.70
2023-05-04T20:59:00.052Z,0.50
2023-05-04T21:02:42.642Z,0.70
2023-05-04T21:06:24.702Z,0.50
2023-05-04T21:10:08.090Z,0.28
2023-05-04T21:13:50.099Z,0.40
2023-05-04T21:17:31.920Z,0.50
2023-05-04T21:21:14.401Z,0.50
2023-05-04T21:24:56.742Z,0.50
2023-05-04T21:28:38.632Z,0.47
2023-05-04T21:32:20.882Z,0.47
2023-05-04T21:36:15.781Z,0.50
2023-05-04T21:39:57.555Z,0.55
2023-05-04T21:43:39.409Z,0.65
2023-05-04T21:47:21.337Z,0.85
2023-05-04T21:51:03.298Z,0.57
2023-05-04T21:54:45.176Z,0.95
2023-05-04T21:58:27.258Z,1.00
2023-05-04T22:02:09.816Z,1.60
2023-05-04T22:05:57.554Z,1.23
2023-05-04T22:09:39.348Z,1.25
2023-05-04T22:13:21.852Z,1.30
2023-05-04T22:17:03.980Z,1.55
2023-05-04T22:20:46.651Z,1.10
2023-05-04T22:24:28.510Z,1.83
2023-05-04T22:28:10.697Z,1.85
2023-05-04T22:31:52.574Z,1.30
2023-05-04T22:35:34.476Z,1.77
2023-05-04T22:39:16.563Z,1.48
2023-05-04T22:42:58.408Z,1.88
2023-05-04T22:46:40.296Z,2.15
2023-05-04T22:50:22.290Z,2.33
2023-05-04T22:54:04.235Z,2.67
2023-05-04T22:57:46.093Z,2.33
2023-05-04T23:01:30.230Z,2.58
2023-05-04T23:05:13.077Z,2.72
2023-05-04T23:08:54.890Z,2.13
2023-05-04T23:12:36.991Z,2.80
2023-05-04T23:16:19.257Z,3.67
2023-05-04T23:20:01.173Z,3.10
2023-05-04T23:23:42.991Z,3.45
2023-05-04T23:27:25.182Z,3.33
2023-05-04T23:31:07.003Z,4.18
2023-05-04T23:34:49.994Z,3.00
2023-05-04T23:38:32.009Z,3.65
2023-05-04T23:42:13.859Z,3.95
2023-05-04T23:46:00.382Z,3.53
2023-05-04T23:49:42.431Z,3.85
2023-05-04T23:53:25.172Z,4.55
2023-05-04T23:57:10.542Z,4.03
